Time;durP1;ratioP1;P1;durP2;ratioP2;P2;SDS_P1;SDS_P2;PMS_P1;PMS_P2;Temp;Humidity;BMP_temperature;BMP_pressure;BME280_temperature;BME280_humidity;BME280_pressure;Samples;Min_cycle;Max_cycle;Signal;HPM_P1;HPM_P2
2021/03/08 00:00:36;;;;;;;15.85;8.85;;;0.90;99.90;;;0.33;68.04;100981.84;4969010;28;20027;-41
2021/03/08 00:03:05;;;;;;;14.63;8.35;;;0.90;99.90;;;0.31;67.70;100983.63;4969025;28;20091;-39
2021/03/08 00:05:31;;;;;;;15.13;9.20;;;0.90;99.90;;;0.24;67.49;100984.78;4968987;28;20035;-39
2021/03/08 00:07:57;;;;;;;15.90;8.65;;;0.90;99.90;;;0.14;67.96;100982.69;4968820;28;20136;-39
2021/03/08 00:10:23;;;;;;;16.63;9.50;;;0.80;99.90;;;0.11;68.86;100990.50;4968948;28;20058;-40
2021/03/08 00:12:50;;;;;;;14.63;7.95;;;0.70;99.90;;;0.21;69.23;100984.91;4969358;28;20381;-39
2021/03/08 00:15:19;;;;;;;12.85;8.18;;;0.70;99.90;;;0.36;68.65;100985.16;4968711;28;20027;-39
2021/03/08 00:17:46;;;;;;;14.77;8.82;;;0.90;99.90;;;0.38;68.83;100984.19;4972480;28;20035;-40
2021/03/08 00:20:16;;;;;;;13.40;8.25;;;0.90;99.90;;;0.45;69.13;100977.91;4954960;28;20514;-39
2021/03/08 00:22:43;;;;;;;12.63;8.00;;;1.00;99.90;;;0.50;69.30;100982.81;4972577;28;20062;-38
2021/03/08 00:25:13;;;;;;;14.02;8.13;;;1.00;99.90;;;0.50;69.23;100985.38;4972094;28;20035;-39
2021/03/08 00:27:40;;;;;;;12.63;7.70;;;1.10;99.90;;;0.45;70.01;100972.78;4972311;28;20118;-40
2021/03/08 00:30:08;;;;;;;13.57;8.25;;;1.00;99.90;;;0.54;70.09;100976.63;4972582;28;20039;-39
2021/03/08 00:32:34;;;;;;;13.18;7.70;;;1.10;99.90;;;0.54;70.58;100972.34;4971286;28;20070;-40
2021/03/08 00:35:01;;;;;;;12.73;8.05;;;1.10;99.90;;;0.59;70.23;100975.53;4972061;28;20057;-40
2021/03/08 00:37:31;;;;;;;12.93;7.63;;;1.10;99.90;;;0.60;69.79;100974.63;4972073;28;20344;-40
2021/03/08 00:40:12;;;;;;;14.02;7.32;;;1.20;99.90;;;0.63;69.91;100976.22;4972501;28;20085;-39
2021/03/08 00:42:39;;;;;;;12.88;6.70;;;1.20;99.90;;;0.65;70.17;100971.88;4971771;28;20099;-39
2021/03/08 00:45:17;;;;;;;10.32;6.13;;;1.20;99.90;;;0.74;70.78;100976.59;4971903;28;20039;-41
2021/03/08 00:47:44;;;;;;;12.35;7.63;;;1.30;99.90;;;0.75;69.69;100968.00;4972227;28;20038;-38
2021/03/08 00:50:25;;;;;;;11.18;7.35;;;1.30;99.90;;;0.72;69.41;100965.56;4971702;28;20541;-39
2021/03/08 00:52:54;;;;;;;18.42;7.00;;;1.30;99.90;;;0.58;69.15;100962.78;4971791;28;20118;-40
2021/03/08 00:55:20;;;;;;;13.18;7.95;;;1.20;99.90;;;0.46;69.20;100961.63;4971708;28;20074;-39
2021/03/08 00:57:47;;;;;;;14.20;8.20;;;1.10;99.90;;;0.36;69.58;100960.34;4971737;28;20367;-38
2021/03/08 01:00:20;;;;;;;14.45;8.05;;;1.00;99.90;;;0.26;69.73;100956.53;4971690;28;20027;-38
2021/03/08 01:02:46;;;;;;;12.93;8.10;;;0.90;99.90;;;0.23;69.60;100962.63;4971679;28;20039;-40
2021/03/08 01:05:12;;;;;;;14.35;8.18;;;0.90;99.90;;;0.07;70.19;100953.91;4971502;28;20034;-38
2021/03/08 01:07:38;;;;;;;13.02;8.07;;;0.70;99.90;;;-0.02;70.56;100954.34;4971535;28;20034;-40
2021/03/08 01:10:15;;;;;;;14.60;8.50;;;0.70;99.90;;;-0.14;71.51;100957.41;4971582;28;20035;-40
2021/03/08 01:12:42;;;;;;;14.07;8.30;;;0.50;99.90;;;-0.21;71.20;100950.88;4971749;28;20045;-40
2021/03/08 01:15:09;;;;;;;15.65;8.40;;;0.50;99.90;;;-0.25;71.17;100950.19;4971287;28;20483;-38
2021/03/08 01:17:37;;;;;;;13.70;8.38;;;0.40;99.90;;;-0.26;71.88;100947.69;4971342;28;20030;-39
2021/03/08 01:20:10;;;;;;;13.65;7.72;;;0.30;99.90;;;-0.30;72.34;100941.03;4971201;28;20415;-39
2021/03/08 01:22:36;;;;;;;15.52;9.20;;;0.30;99.90;;;-0.35;71.82;100936.91;4971111;28;20035;-40
2021/03/08 01:25:20;;;;;;;14.63;8.60;;;0.30;99.90;;;-0.38;73.52;100931.09;4971315;28;20667;-40
2021/03/08 01:27:46;;;;;;;14.85;8.63;;;0.20;99.90;;;-0.45;72.67;100922.00;4970240;28;20042;-39
2021/03/08 01:30:20;;;;;;;15.07;8.93;;;0.20;99.90;;;-0.50;72.71;100917.09;4971278;28;20050;-38
2021/03/08 01:32:46;;;;;;;13.32;8.20;;;0.20;99.90;;;-0.59;72.72;100920.03;4971244;28;20039;-37
2021/03/08 01:35:12;;;;;;;14.20;7.90;;;0.10;99.90;;;-0.55;72.91;100919.00;4970977;28;20041;-38
2021/03/08 01:37:39;;;;;;;13.63;8.15;;;0.10;99.90;;;-0.57;72.85;100907.16;4971201;28;20049;-39
2021/03/08 01:40:11;;;;;;;13.65;8.15;;;0.10;99.90;;;-0.57;72.86;100910.56;4970918;28;20035;-39
2021/03/08 01:42:40;;;;;;;13.00;7.38;;;0.00;99.90;;;-0.69;72.74;100903.38;4970426;28;20061;-40
2021/03/08 01:45:12;;;;;;;13.82;8.18;;;0.00;99.90;;;-0.67;72.89;100906.72;4971016;28;20037;-40
2021/03/08 01:47:39;;;;;;;11.27;6.97;;;-0.10;99.90;;;-0.70;72.42;100901.72;4970780;28;20042;-40
2021/03/08 01:50:12;;;;;;;11.25;7.50;;;-0.10;99.90;;;-0.67;72.58;100899.03;4970696;28;20046;-40
2021/03/08 01:52:39;;;;;;;14.20;8.07;;;-0.10;99.90;;;-0.65;72.05;100898.97;4970489;28;20038;-40
2021/03/08 01:55:06;;;;;;;13.07;7.75;;;-0.10;99.90;;;-0.69;71.69;100895.69;4970585;28;20050;-39
2021/03/08 01:57:32;;;;;;;14.40;8.35;;;-0.10;99.90;;;-0.73;71.57;100891.59;4970534;28;20039;-38
2021/03/08 01:59:59;;;;;;;13.15;7.03;;;-0.10;99.90;;;-0.67;71.68;100892.19;4970607;28;20042;-38
2021/03/08 02:02:25;;;;;;;14.95;8.32;;;-0.10;99.90;;;-0.59;71.53;100881.63;4970543;28;20042;-40
2021/03/08 02:04:51;;;;;;;13.23;7.38;;;0.00;99.90;;;-0.63;71.18;100872.41;4970480;28;20094;-38
2021/03/08 02:07:16;;;;;;;13.18;7.13;;;0.00;99.90;;;-0.62;71.16;100868.97;4970204;28;20041;-38
2021/03/08 02:09:42;;;;;;;17.70;7.93;;;0.00;99.90;;;-0.57;71.55;100873.91;4970458;28;20035;-39
2021/03/08 02:12:37;;;;;;;11.88;6.85;;;0.00;99.90;;;-0.48;72.43;100865.84;4970323;28;20081;-39
2021/03/08 02:15:25;;;;;;;13.80;8.00;;;0.10;99.90;;;-0.46;70.79;100864.84;4948562;28;20078;-40
2021/03/08 02:18:09;;;;;;;10.95;6.88;;;0.10;99.90;;;-0.51;71.80;100860.84;4970117;28;20775;-39
2021/03/08 02:20:56;;;;;;;12.45;7.45;;;0.10;99.90;;;-0.48;71.82;100861.56;4970108;28;20035;-39
2021/03/08 02:23:22;;;;;;;17.38;7.55;;;0.10;99.90;;;-0.49;70.74;100859.06;4970120;28;20038;-38
2021/03/08 02:26:21;;;;;;;12.30;7.28;;;0.10;99.90;;;-0.31;71.52;100857.41;4970081;28;20062;-40
2021/03/08 02:28:46;;;;;;;15.48;7.45;;;0.20;99.90;;;-0.34;70.71;100851.53;4970206;28;20150;-39
2021/03/08 02:31:21;;;;;;;15.75;7.60;;;0.30;99.90;;;-0.28;71.02;100849.59;4970178;28;20126;-39
2021/03/08 02:34:14;;;;;;;12.13;7.47;;;0.30;99.90;;;-0.26;71.37;100843.53;4970020;28;20061;-38
2021/03/08 02:36:49;;;;;;;11.35;6.47;;;0.30;99.90;;;-0.30;70.81;100838.59;4952817;28;20081;-38
2021/03/08 02:39:40;;;;;;;12.10;8.15;;;0.30;99.90;;;-0.27;70.44;100838.47;4952519;28;20042;-42
2021/03/08 02:42:12;;;;;;;13.23;8.18;;;0.30;99.90;;;-0.29;70.99;100828.28;5014007;23;20062;-39
2021/03/08 02:44:39;;;;;;;14.77;7.38;;;0.30;99.90;;;-0.34;70.97;100827.66;4989421;28;20421;-41
2021/03/08 02:47:08;;;;;;;12.02;7.63;;;0.20;99.90;;;-0.43;70.96;100831.44;4972009;28;20038;-40
2021/03/08 02:49:35;;;;;;;14.45;8.20;;;0.20;99.90;;;-0.48;71.52;100827.44;4972012;28;20045;-40
2021/03/08 02:52:13;;;;;;;14.75;7.03;;;0.10;99.90;;;-0.51;71.87;100825.84;4971767;28;20039;-40
2021/03/08 02:54:48;;;;;;;14.38;7.65;;;0.10;99.90;;;-0.57;71.50;100822.72;4971718;28;20057;-40
2021/03/08 02:57:21;;;;;;;12.80;8.20;;;0.10;99.90;;;-0.68;72.40;100824.00;4989194;28;20405;-40
2021/03/08 02:59:49;;;;;;;15.55;7.55;;;0.00;99.90;;;-0.76;72.64;100825.19;4989203;28;20034;-40
2021/03/08 03:02:17;;;;;;;13.48;7.38;;;-0.10;99.90;;;-0.83;72.73;100823.78;4971665;28;20065;-42
2021/03/08 03:04:46;;;;;;;18.92;8.65;;;-0.20;99.90;;;-0.84;72.52;100832.34;4971570;28;20038;-40
2021/03/08 03:07:14;;;;;;;14.52;8.57;;;-0.20;99.90;;;-0.79;72.37;100831.28;4971475;28;20037;-41
2021/03/08 03:09:42;;;;;;;13.13;7.63;;;-0.20;99.90;;;-0.84;71.92;100822.94;4971314;28;20034;-40
2021/03/08 03:12:11;;;;;;;17.42;8.85;;;-0.20;99.90;;;-0.86;72.58;100834.16;4988929;28;20053;-39
2021/03/08 03:14:39;;;;;;;11.30;7.22;;;-0.30;99.90;;;-0.86;72.54;100823.91;4988846;28;20065;-40
2021/03/08 03:17:10;;;;;;;11.57;7.75;;;-0.20;99.90;;;-0.79;73.08;100828.72;4971473;28;20573;-39
2021/03/08 03:19:41;;;;;;;14.80;8.15;;;-0.20;99.90;;;-0.76;72.61;100831.16;4971433;28;20600;-40
2021/03/08 03:22:11;;;;;;;13.07;8.38;;;-0.20;99.90;;;-0.69;72.36;100832.56;4971697;28;20125;-41
2021/03/08 03:24:37;;;;;;;15.15;8.15;;;-0.10;99.90;;;-0.54;72.46;100828.53;4988894;28;20053;-41
2021/03/08 03:27:05;;;;;;;13.00;7.32;;;0.00;99.90;;;-0.53;72.39;100834.47;4970969;28;20409;-40
2021/03/08 03:29:34;;;;;;;14.20;7.30;;;0.00;99.90;;;-0.57;72.74;100833.78;4971284;28;20126;-42
2021/03/08 03:32:02;;;;;;;13.77;7.97;;;0.00;99.90;;;-0.59;73.60;100827.88;4971277;28;20030;-40
2021/03/08 03:34:29;;;;;;;11.32;7.38;;;0.00;99.90;;;-0.46;72.78;100831.56;4988451;28;20038;-41
2021/03/08 03:36:55;;;;;;;12.77;7.70;;;0.10;99.90;;;-0.44;73.21;100824.66;4955089;28;20034;-40
2021/03/08 03:39:23;;;;;;;13.05;8.13;;;0.10;99.90;;;-0.32;73.73;100825.03;4988615;28;20046;-40
2021/03/08 03:41:49;;;;;;;13.05;8.20;;;0.20;99.90;;;-0.25;72.59;100834.13;4988742;28;20053;-40
2021/03/08 03:44:15;;;;;;;12.13;7.05;;;0.30;99.90;;;-0.27;73.31;100835.91;4988366;28;20050;-40
2021/03/08 03:46:43;;;;;;;16.23;7.53;;;0.30;99.90;;;-0.24;72.99;100828.09;4988336;28;20038;-40
2021/03/08 03:49:11;;;;;;;12.52;7.13;;;0.40;99.90;;;-0.23;72.88;100825.47;4988243;28;20054;-40
2021/03/08 03:51:39;;;;;;;12.82;7.93;;;0.30;99.90;;;-0.17;73.22;100819.25;4990725;28;20451;-40
2021/03/08 03:54:05;;;;;;;13.43;6.82;;;0.40;99.90;;;-0.08;73.34;100826.53;4992437;28;20401;-40
2021/03/08 03:56:33;;;;;;;15.00;8.20;;;0.40;99.90;;;-0.13;73.22;100820.78;4990929;28;20034;-40
2021/03/08 03:59:15;;;;;;;14.65;7.70;;;0.50;99.90;;;-0.15;74.25;100820.84;4991660;28;20038;-40
2021/03/08 04:02:00;;;;;;;12.55;8.10;;;0.40;99.90;;;-0.10;74.19;100820.63;4991952;28;20081;-41
2021/03/08 04:04:34;;;;;;;13.35;7.28;;;0.40;99.90;;;-0.05;73.17;100819.53;4991967;28;20188;-39
2021/03/08 04:07:04;;;;;;;14.65;8.48;;;0.40;99.90;;;-0.05;72.90;100814.41;4974962;28;20045;-39
2021/03/08 04:09:30;;;;;;;13.57;7.93;;;0.50;99.90;;;-0.04;73.46;100815.25;4991972;28;20750;-39
2021/03/08 04:11:59;;;;;;;13.35;8.23;;;0.50;99.90;;;-0.01;73.08;100812.56;4974296;28;20046;-39
2021/03/08 04:14:27;;;;;;;13.80;7.10;;;0.60;99.90;;;-0.05;73.33;100809.28;4991760;28;20409;-40
2021/03/08 04:16:58;;;;;;;13.65;7.78;;;0.50;99.90;;;0.00;73.01;100811.66;4974633;28;20096;-39
2021/03/08 04:19:28;;;;;;;13.38;8.80;;;0.50;99.90;;;-0.05;73.43;100805.91;4974783;28;20045;-40
2021/03/08 04:22:05;;;;;;;18.77;9.13;;;0.50;99.90;;;-0.10;73.64;100805.28;4991632;28;20041;-39
2021/03/08 04:24:33;;;;;;;11.38;8.07;;;0.50;99.90;;;-0.14;73.70;100804.56;4991546;28;20490;-39
2021/03/08 04:27:05;;;;;;;13.85;8.35;;;0.50;99.90;;;-0.13;73.57;100818.22;4991596;28;20034;-40
2021/03/08 04:29:37;;;;;;;14.88;8.00;;;0.40;99.90;;;-0.11;73.97;100808.72;4974781;28;20061;-40
2021/03/08 04:32:05;;;;;;;12.73;7.97;;;0.50;99.90;;;-0.14;73.42;100807.13;4991657;28;20037;-39
2021/03/08 04:34:32;;;;;;;11.65;7.72;;;0.40;99.90;;;-0.14;73.70;100806.31;4991537;28;20050;-39
2021/03/08 04:37:00;;;;;;;19.48;9.55;;;0.40;99.90;;;-0.18;73.82;100820.16;4974013;28;20046;-39
2021/03/08 04:39:34;;;;;;;16.02;8.65;;;0.40;99.90;;;-0.21;73.95;100813.44;4991723;28;20034;-39
2021/03/08 04:42:02;;;;;;;14.95;8.52;;;0.40;99.90;;;-0.25;74.00;100819.56;4972551;28;20046;-38
2021/03/08 04:44:28;;;;;;;12.52;7.78;;;0.30;99.90;;;-0.23;74.28;100811.84;4971997;28;20494;-38
2021/03/08 04:46:55;;;;;;;16.17;9.57;;;0.20;99.90;;;-0.20;74.24;100814.25;4954564;28;20051;-39
2021/03/08 04:49:21;;;;;;;17.48;10.57;;;0.30;99.90;;;-0.21;73.72;100810.88;4954524;28;20039;-39
2021/03/08 04:51:49;;;;;;;17.35;9.45;;;0.40;99.90;;;-0.20;74.66;100814.25;4954438;28;20435;-39
2021/03/08 04:54:19;;;;;;;14.05;8.88;;;0.50;99.90;;;-0.19;74.70;100808.25;4954406;28;20089;-38
2021/03/08 04:56:47;;;;;;;16.80;10.15;;;0.30;99.90;;;-0.21;74.78;100813.44;4971796;28;20154;-40
2021/03/08 04:59:14;;;;;;;20.63;11.13;;;0.40;99.90;;;-0.24;73.70;100808.44;4954282;28;20490;-40
2021/03/08 05:01:43;;;;;;;16.52;8.93;;;0.30;99.90;;;-0.22;75.47;100810.94;4971478;28;20784;-41
2021/03/08 05:04:10;;;;;;;13.43;8.38;;;0.30;99.90;;;-0.22;74.04;100805.81;4953509;28;20254;-40
2021/03/08 05:06:40;;;;;;;17.17;8.95;;;0.30;99.90;;;-0.22;74.80;100806.63;4954110;28;20034;-39
2021/03/08 05:09:09;;;;;;;17.80;8.60;;;0.30;99.90;;;-0.24;74.59;100812.72;4954272;28;20035;-39
2021/03/08 05:11:36;;;;;;;14.40;8.85;;;0.30;99.90;;;-0.24;75.20;100810.16;4971472;28;20034;-39
2021/03/08 05:14:24;;;;;;;15.57;9.68;;;0.30;99.90;;;-0.22;75.54;100811.75;4971202;28;20035;-39
2021/03/08 05:16:50;;;;;;;16.85;9.63;;;0.30;99.90;;;-0.26;75.13;100812.78;4971332;28;20105;-39
2021/03/08 05:19:19;;;;;;;15.40;9.50;;;0.30;99.90;;;-0.30;74.41;100813.00;4971192;28;20046;-39
2021/03/08 05:21:47;;;;;;;18.30;9.25;;;0.30;99.90;;;-0.29;75.06;100819.78;4953734;28;20549;-40
2021/03/08 05:24:13;;;;;;;12.20;7.80;;;0.30;99.90;;;-0.27;76.26;100812.84;4953911;28;20163;-40
2021/03/08 05:26:39;;;;;;;16.23;7.55;;;0.20;99.90;;;-0.21;76.16;100813.44;4971050;28;20034;-39
2021/03/08 05:29:07;;;;;;;13.95;7.85;;;0.30;99.90;;;-0.25;75.17;100811.91;4971132;28;20554;-39
2021/03/08 05:31:45;;;;;;;13.80;7.32;;;0.30;99.90;;;-0.25;76.17;100814.47;4970977;28;20062;-39
2021/03/08 05:34:16;;;;;;;16.92;9.00;;;0.30;99.90;;;-0.27;75.59;100802.63;4970935;28;20045;-41
2021/03/08 05:36:46;;;;;;;15.25;9.07;;;0.30;99.90;;;-0.29;74.86;100812.09;4954183;28;20047;-40
2021/03/08 05:39:16;;;;;;;12.88;8.02;;;0.30;99.90;;;-0.28;75.61;100806.06;4971082;28;20043;-40
2021/03/08 05:42:16;;;;;;;12.93;7.95;;;0.30;99.90;;;-0.26;76.34;100815.34;4953591;28;20110;-39
2021/03/08 05:45:09;;;;;;;14.98;8.15;;;0.30;99.90;;;-0.24;76.29;100812.72;5009986;28;20085;-40
2021/03/08 05:48:18;;;;;;;15.18;8.68;;;0.30;99.90;;;-0.17;76.35;100816.69;5009331;28;20121;-41
2021/03/08 05:51:05;;;;;;;11.75;7.22;;;0.30;99.90;;;-0.14;75.43;100814.00;5009697;28;20089;-40
2021/03/08 05:53:57;;;;;;;13.70;8.38;;;0.40;99.90;;;-0.14;75.66;100811.44;5009975;28;20108;-40
2021/03/08 05:56:53;;;;;;;11.88;8.52;;;0.40;99.90;;;-0.12;75.51;100825.00;4991794;28;20053;-41
2021/03/08 05:59:41;;;;;;;13.63;8.05;;;0.40;99.90;;;-0.06;76.81;100817.03;4992607;28;20034;-40
2021/03/08 06:02:58;;;;;;;12.18;6.00;;;0.50;99.90;;;0.00;76.02;100821.91;4992833;28;20038;-39
2021/03/08 06:06:13;;;;;;;11.32;6.18;;;0.60;99.90;;;0.08;76.53;100819.78;4983172;28;20136;-42
2021/03/08 06:09:14;;;;;;;16.35;8.75;;;0.60;99.90;;;0.14;75.28;100824.66;5009386;28;20048;-40
2021/03/08 06:11:48;;;;;;;12.85;7.72;;;0.70;99.90;;;0.22;74.36;100814.88;5009258;28;20046;-40
2021/03/08 06:14:19;;;;;;;15.13;8.65;;;0.80;99.90;;;0.31;73.73;100817.03;5008884;28;20037;-41
2021/03/08 06:16:46;;;;;;;17.42;9.93;;;0.80;99.90;;;0.39;73.29;100816.69;4991591;28;20037;-40
2021/03/08 06:19:14;;;;;;;16.38;10.80;;;1.00;99.90;;;0.43;73.40;100820.75;4991596;28;20117;-40
2021/03/08 06:21:40;;;;;;;16.27;10.73;;;1.00;99.90;;;0.55;73.27;100821.91;4991718;28;20136;-40
2021/03/08 06:24:07;;;;;;;18.17;10.18;;;1.10;99.90;;;0.62;73.46;100824.09;4991512;28;20205;-40
2021/03/08 06:26:33;;;;;;;22.23;10.23;;;1.20;99.90;;;0.71;73.24;100832.25;5008814;28;20087;-40
2021/03/08 06:28:59;;;;;;;20.60;11.13;;;1.30;99.90;;;0.80;73.03;100835.22;5009406;28;20030;-41
2021/03/08 06:31:27;;;;;;;14.50;8.70;;;1.40;99.90;;;0.85;72.25;100837.56;5008680;28;20041;-41
2021/03/08 06:33:54;;;;;;;17.73;11.05;;;1.40;99.90;;;0.91;72.29;100837.28;5008998;28;20041;-41
2021/03/08 06:36:22;;;;;;;17.90;10.93;;;1.40;99.90;;;1.02;71.80;100837.56;4991256;28;20038;-41
2021/03/08 06:38:49;;;;;;;17.02;9.38;;;1.60;99.90;;;1.07;71.97;100847.63;5008623;28;20044;-39
2021/03/08 06:41:16;;;;;;;16.42;8.82;;;1.70;99.90;;;1.10;71.87;100847.47;5008889;28;20037;-41
2021/03/08 06:43:42;;;;;;;15.68;8.98;;;1.70;99.90;;;1.16;71.54;100853.13;5008647;28;20060;-40
2021/03/08 06:46:12;;;;;;;14.25;8.75;;;1.80;99.90;;;1.25;71.13;100849.28;4990720;28;20346;-40
2021/03/08 06:48:38;;;;;;;17.35;8.52;;;1.80;99.90;;;1.42;70.41;100856.97;5008604;28;20444;-40
2021/03/08 06:51:15;;;;;;;12.60;8.38;;;2.00;99.90;;;1.51;70.27;100864.19;5008371;28;20037;-40
2021/03/08 06:53:44;;;;;;;14.45;8.40;;;2.10;99.90;;;1.61;69.70;100855.13;5000514;28;20042;-40
2021/03/08 06:56:21;;;;;;;15.90;9.30;;;2.30;99.90;;;1.73;69.54;100865.69;4989635;28;20042;-40
2021/03/08 06:59:14;;;;;;;15.48;9.57;;;2.30;99.90;;;1.93;69.54;100865.47;4989212;28;20448;-40
2021/03/08 07:01:42;;;;;;;20.75;13.60;;;2.50;99.90;;;2.00;68.57;100862.50;4988945;28;20118;-39
2021/03/08 07:04:12;;;;;;;18.42;10.98;;;2.60;99.90;;;2.15;68.42;100860.06;4971569;28;20041;-40
2021/03/08 07:06:39;;;;;;;16.80;9.95;;;2.70;99.90;;;2.38;67.75;100858.81;4988685;28;20026;-39
2021/03/08 07:09:14;;;;;;;17.98;11.07;;;2.90;99.90;;;2.54;67.42;100862.22;4971304;28;20096;-40
2021/03/08 07:11:40;;;;;;;15.43;10.17;;;3.10;99.90;;;2.55;67.47;100863.88;4988805;28;20486;-39
2021/03/08 07:14:22;;;;;;;17.85;10.68;;;3.10;99.90;;;2.65;67.10;100862.47;4971087;28;20034;-40
2021/03/08 07:16:47;;;;;;;17.67;10.73;;;3.20;99.90;;;2.79;66.61;100865.13;4988534;28;20399;-40
2021/03/08 07:19:13;;;;;;;16.48;9.20;;;3.30;99.90;;;2.96;66.18;100859.84;4970818;28;20180;-40
2021/03/08 07:21:39;;;;;;;13.35;9.02;;;3.50;99.90;;;2.94;66.00;100866.81;4988596;28;20039;-40
2021/03/08 07:24:12;;;;;;;14.38;9.23;;;3.60;99.90;;;2.94;65.67;100866.81;4988532;28;20061;-40
2021/03/08 07:26:52;;;;;;;15.85;9.82;;;3.60;99.90;;;3.04;65.66;100871.44;4991262;28;20061;-40
2021/03/08 07:29:20;;;;;;;17.27;9.98;;;3.70;99.90;;;3.28;65.24;100859.75;4992817;28;20034;-40
2021/03/08 07:31:51;;;;;;;13.65;9.68;;;3.80;99.90;;;3.40;64.74;100860.78;4997227;28;20121;-39
2021/03/08 07:34:19;;;;;;;16.48;10.23;;;4.00;99.90;;;3.53;64.43;100862.56;5004967;28;20506;-39
2021/03/08 07:37:01;;;;;;;18.05;10.73;;;4.10;99.90;;;3.56;64.48;100858.97;5005596;28;20156;-48
2021/03/08 07:39:27;;;;;;;16.63;10.05;;;4.20;99.90;;;3.66;63.83;100865.25;5008456;28;20049;-40
2021/03/08 07:42:09;;;;;;;16.02;9.68;;;4.20;99.90;;;3.65;63.91;100854.09;5011850;28;20418;-39
2021/03/08 07:44:50;;;;;;;15.88;10.55;;;4.30;99.90;;;3.96;63.04;100857.41;5012108;28;20104;-39
2021/03/08 07:47:20;;;;;;;14.00;9.25;;;4.50;99.90;;;3.95;62.82;100860.91;4994234;28;20443;-39
2021/03/08 07:49:47;;;;;;;15.07;9.93;;;4.60;99.90;;;4.19;62.74;100856.03;5011986;28;20061;-39
2021/03/08 07:52:17;;;;;;;15.25;9.15;;;4.70;99.90;;;4.38;61.92;100847.97;5011827;28;20084;-40
2021/03/08 07:55:00;;;;;;;17.77;11.73;;;4.90;99.90;;;4.59;61.38;100856.94;5011693;28;20048;-39
2021/03/08 07:57:29;;;;;;;16.92;10.93;;;5.10;99.80;;;4.68;61.46;100851.22;5011980;28;20382;-39
2021/03/08 07:59:55;;;;;;;17.63;10.82;;;5.20;99.10;;;4.97;60.92;100846.75;5011661;28;20511;-39
2021/03/08 08:02:22;;;;;;;15.65;9.73;;;5.40;98.90;;;5.05;60.31;100846.25;5011958;28;20025;-39
2021/03/08 08:04:50;;;;;;;16.58;11.18;;;5.60;97.60;;;5.12;60.02;100845.75;5011585;28;20036;-40
2021/03/08 08:07:21;;;;;;;17.60;11.55;;;5.70;97.00;;;5.21;59.93;100845.13;4993994;28;20034;-41
2021/03/08 08:09:48;;;;;;;15.05;10.18;;;5.80;96.40;;;5.15;59.79;100852.47;4994239;28;20042;-40
2021/03/08 08:12:21;;;;;;;13.65;9.63;;;5.80;95.70;;;5.14;59.47;100848.25;5011624;28;20026;-41
2021/03/08 08:14:50;;;;;;;19.80;10.85;;;5.80;95.60;;;5.36;59.38;100848.47;5011235;28;20030;-40
2021/03/08 08:17:21;;;;;;;18.50;11.57;;;5.90;95.60;;;5.54;58.72;100852.41;4994043;28;20038;-41
2021/03/08 08:19:49;;;;;;;16.13;10.90;;;6.00;95.30;;;5.66;58.72;100846.44;5011430;28;20396;-41
2021/03/08 08:22:23;;;;;;;16.98;11.18;;;6.10;95.00;;;5.82;58.07;100848.78;5011521;28;20030;-40
2021/03/08 08:24:53;;;;;;;16.27;10.98;;;6.30;94.30;;;5.83;57.79;100841.84;5011230;28;20072;-40
2021/03/08 08:27:21;;;;;;;18.20;11.10;;;6.30;93.60;;;5.96;58.00;100845.28;4993615;28;20125;-39
2021/03/08 08:29:49;;;;;;;17.02;10.85;;;6.50;93.50;;;6.21;57.63;100846.97;4993656;28;20037;-39
2021/03/08 08:32:17;;;;;;;21.52;11.77;;;6.60;93.20;;;6.36;56.80;100838.16;4993542;28;20037;-39
2021/03/08 08:34:47;;;;;;;18.95;11.15;;;6.80;92.20;;;6.60;55.94;100839.00;5011210;28;20474;-39
2021/03/08 08:37:26;;;;;;;14.25;9.25;;;7.00;91.50;;;6.83;54.83;100837.31;5007717;28;20048;-39
2021/03/08 08:39:52;;;;;;;20.15;11.35;;;7.20;90.60;;;6.93;55.45;100840.06;5010132;28;20030;-39
2021/03/08 08:42:27;;;;;;;22.88;11.27;;;7.30;90.00;;;7.09;54.21;100844.97;5010489;28;20630;-39
2021/03/08 08:44:57;;;;;;;15.38;10.38;;;7.50;89.10;;;7.40;54.42;100843.50;5010633;28;20397;-40
2021/03/08 08:47:36;;;;;;;16.73;10.73;;;7.80;88.60;;;7.72;53.65;100838.47;5010799;28;20038;-41
2021/03/08 08:50:08;;;;;;;16.63;10.45;;;8.10;86.40;;;7.68;53.61;100840.47;5010871;28;20033;-40
2021/03/08 08:52:52;;;;;;;17.45;11.05;;;8.30;84.40;;;7.77;52.37;100841.53;5010624;28;20115;-41
2021/03/08 08:55:36;;;;;;;20.38;11.65;;;8.30;83.40;;;7.96;51.70;100840.03;5010537;28;20113;-39
2021/03/08 08:58:29;;;;;;;14.13;10.32;;;8.40;83.20;;;8.11;52.02;100843.16;4994783;28;20470;-41
2021/03/08 09:01:35;;;;;;;19.27;10.25;;;8.50;82.30;;;8.49;50.99;100839.38;5010609;28;20117;-40
2021/03/08 09:04:05;;;;;;;15.20;11.23;;;8.80;81.90;;;8.61;51.87;100835.78;5010550;28;20054;-40
2021/03/08 09:07:00;;;;;;;16.27;9.70;;;9.10;79.60;;;8.81;50.13;100836.78;5010551;28;20109;-40
2021/03/08 09:09:32;;;;;;;14.85;10.25;;;9.30;78.80;;;8.77;50.02;100831.00;5010430;28;20042;-39
2021/03/08 09:12:00;;;;;;;15.55;10.80;;;9.30;77.30;;;8.62;51.00;100834.84;5010508;28;20050;-40
2021/03/08 09:14:36;;;;;;;14.60;10.15;;;9.20;76.60;;;8.69;50.35;100837.78;5010565;28;20072;-41
2021/03/08 09:17:22;;;;;;;14.93;10.27;;;9.20;76.20;;;8.92;50.15;100834.97;5010083;28;20102;-39
2021/03/08 09:19:57;;;;;;;18.65;11.77;;;9.30;76.20;;;9.16;49.33;100839.09;5010658;28;20053;-41
2021/03/08 09:22:25;;;;;;;17.25;11.55;;;9.60;76.10;;;9.17;50.61;100835.53;5010166;28;20073;-43
2021/03/08 09:25:08;;;;;;;18.33;11.32;;;9.70;75.70;;;9.55;49.98;100832.34;5010031;28;20056;-41
2021/03/08 09:28:11;;;;;;;15.35;10.68;;;9.90;76.50;;;9.69;48.46;100828.59;4993522;28;20037;-40
2021/03/08 09:30:43;;;;;;;18.42;11.45;;;10.20;73.90;;;9.50;50.24;100826.72;4948784;29;20039;-40
2021/03/08 09:33:15;;;;;;;17.25;10.80;;;10.10;74.10;;;9.36;50.45;100824.47;4949020;29;20055;-40
2021/03/08 09:35:50;;;;;;;16.25;11.15;;;10.00;74.10;;;9.67;50.30;100818.31;4948970;29;20139;-41
2021/03/08 09:38:27;;;;;;;17.02;11.38;;;10.10;75.50;;;10.04;48.94;100815.97;4948885;29;20086;-40
2021/03/08 09:40:59;;;;;;;16.33;11.18;;;10.40;74.00;;;9.99;48.61;100818.97;4948678;29;20039;-42
2021/03/08 09:43:33;;;;;;;14.88;11.88;;;10.40;73.00;;;10.21;48.89;100804.97;4948670;29;20122;-41
2021/03/08 09:46:16;;;;;;;17.73;11.98;;;10.50;73.60;;;10.29;47.17;100807.72;4948824;29;20047;-40
2021/03/08 09:48:50;;;;;;;16.45;12.13;;;10.70;72.10;;;10.15;48.75;100802.88;4948059;28;20103;-40
2021/03/08 09:51:19;;;;;;;17.90;11.75;;;10.70;71.60;;;10.38;48.17;100800.91;4948526;29;20109;-40
2021/03/08 09:53:48;;;;;;;18.38;12.30;;;10.70;71.20;;;10.41;47.54;100797.16;4948331;29;20038;-40
2021/03/08 09:56:19;;;;;;;19.27;12.15;;;10.90;71.30;;;10.44;48.07;100792.50;4948496;29;20047;-39
2021/03/08 09:58:46;;;;;;;15.68;12.00;;;10.90;70.80;;;10.42;48.03;100788.41;4948481;29;20390;-40
2021/03/08 10:01:19;;;;;;;16.23;11.30;;;10.90;69.50;;;10.73;46.87;100786.50;4948493;29;20462;-40
2021/03/08 10:03:47;;;;;;;15.85;11.80;;;11.10;70.20;;;10.67;46.76;100782.66;4957824;28;20537;-40
2021/03/08 10:06:29;;;;;;;19.05;13.27;;;11.20;67.90;;;10.30;47.00;100785.94;5009274;28;20057;-39
2021/03/08 10:08:57;;;;;;;15.95;11.65;;;10.90;69.00;;;10.42;48.17;100777.97;5009445;28;20041;-39
2021/03/08 10:11:29;;;;;;;20.90;12.57;;;10.90;69.80;;;10.67;46.08;100774.84;4991769;28;20162;-39
2021/03/08 10:13:56;;;;;;;18.95;12.18;;;11.10;67.80;;;10.31;48.08;100771.13;5009271;28;20037;-40
2021/03/08 10:16:28;;;;;;;14.77;11.60;;;10.80;68.70;;;10.30;47.49;100770.31;5009140;28;20049;-41
2021/03/08 10:18:55;;;;;;;16.63;12.40;;;10.80;68.40;;;10.78;47.38;100766.88;5008865;28;20029;-40
2021/03/08 10:21:22;;;;;;;15.30;11.63;;;11.10;69.10;;;11.01;46.59;100761.34;5009326;28;20537;-40
2021/03/08 10:23:49;;;;;;;15.10;11.85;;;11.30;68.10;;;11.03;46.75;100762.88;5009299;28;20041;-40
2021/03/08 10:26:19;;;;;;;18.80;12.10;;;11.50;67.80;;;10.86;47.02;100766.19;5009056;28;20030;-39
2021/03/08 10:28:50;;;;;;;17.83;13.00;;;11.30;67.50;;;11.14;46.10;100764.50;5009096;28;20037;-40
2021/03/08 10:31:20;;;;;;;20.15;12.98;;;11.50;67.10;;;11.39;45.88;100758.63;5009131;28;20462;-40
2021/03/08 10:33:52;;;;;;;15.20;11.75;;;11.70;67.20;;;11.32;45.20;100757.59;5008894;28;20104;-40